sensor_id;sensor_type;location;lat;lon;timestamp;temperature;humidity
35690;DHT22;26977;44.830;-0.674;2022-07-18T00:02:22;24.50;74.30
35690;DHT22;26977;44.830;-0.674;2022-07-18T00:04:48;24.60;74.40
35690;DHT22;26977;44.830;-0.674;2022-07-18T00:07:14;24.60;74.10
35690;DHT22;26977;44.830;-0.674;2022-07-18T00:09:41;24.60;73.90
35690;DHT22;26977;44.830;-0.674;2022-07-18T00:12:08;24.50;74.40
35690;DHT22;26977;44.830;-0.674;2022-07-18T00:14:35;24.50;74.10
35690;DHT22;26977;44.830;-0.674;2022-07-18T00:17:01;24.50;74.10
35690;DHT22;26977;44.830;-0.674;2022-07-18T00:19:28;24.50;74.10
35690;DHT22;26977;44.830;-0.674;2022-07-18T00:21:55;24.40;74.40
35690;DHT22;26977;44.830;-0.674;2022-07-18T00:24:21;24.30;74.60
35690;DHT22;26977;44.830;-0.674;2022-07-18T00:26:47;24.10;74.90
35690;DHT22;26977;44.830;-0.674;2022-07-18T00:29:13;24.00;75.20
35690;DHT22;26977;44.830;-0.674;2022-07-18T00:31:39;23.70;75.60
35690;DHT22;26977;44.830;-0.674;2022-07-18T00:34:06;23.60;76.20
35690;DHT22;26977;44.830;-0.674;2022-07-18T00:36:32;23.40;77.20
35690;DHT22;26977;44.830;-0.674;2022-07-18T00:38:58;23.30;77.80
35690;DHT22;26977;44.830;-0.674;2022-07-18T00:41:24;23.20;77.60
35690;DHT22;26977;44.830;-0.674;2022-07-18T00:43:51;23.00;78.30
35690;DHT22;26977;44.830;-0.674;2022-07-18T00:46:21;22.90;78.70
35690;DHT22;26977;44.830;-0.674;2022-07-18T00:48:48;22.90;78.90
35690;DHT22;26977;44.830;-0.674;2022-07-18T00:51:14;23.00;78.90
35690;DHT22;26977;44.830;-0.674;2022-07-18T00:53:44;23.00;78.40
35690;DHT22;26977;44.830;-0.674;2022-07-18T00:56:11;22.90;78.50
35690;DHT22;26977;44.830;-0.674;2022-07-18T00:58:37;22.80;79.10
35690;DHT22;26977;44.830;-0.674;2022-07-18T01:01:04;22.80;78.80
35690;DHT22;26977;44.830;-0.674;2022-07-18T01:03:48;22.80;79.10
35690;DHT22;26977;44.830;-0.674;2022-07-18T01:06:14;22.80;78.70
35690;DHT22;26977;44.830;-0.674;2022-07-18T01:08:43;22.70;79.50
35690;DHT22;26977;44.830;-0.674;2022-07-18T01:11:10;22.60;79.60
35690;DHT22;26977;44.830;-0.674;2022-07-18T01:13:37;22.50;79.90
35690;DHT22;26977;44.830;-0.674;2022-07-18T01:16:03;22.50;79.70
35690;DHT22;26977;44.830;-0.674;2022-07-18T01:18:30;22.40;79.70
35690;DHT22;26977;44.830;-0.674;2022-07-18T01:20:56;22.30;80.20
35690;DHT22;26977;44.830;-0.674;2022-07-18T01:23:22;22.30;80.20
35690;DHT22;26977;44.830;-0.674;2022-07-18T01:25:48;22.20;80.50
35690;DHT22;26977;44.830;-0.674;2022-07-18T01:28:14;22.20;80.70
35690;DHT22;26977;44.830;-0.674;2022-07-18T01:30:40;22.30;80.20
35690;DHT22;26977;44.830;-0.674;2022-07-18T01:33:07;22.30;80.30
35690;DHT22;26977;44.830;-0.674;2022-07-18T01:35:33;22.30;80.10
35690;DHT22;26977;44.830;-0.674;2022-07-18T01:38:00;22.20;80.10
35690;DHT22;26977;44.830;-0.674;2022-07-18T01:40:27;22.30;79.80
35690;DHT22;26977;44.830;-0.674;2022-07-18T01:42:53;22.30;79.80
35690;DHT22;26977;44.830;-0.674;2022-07-18T01:45:21;22.30;79.90
35690;DHT22;26977;44.830;-0.674;2022-07-18T01:47:47;22.30;79.70
35690;DHT22;26977;44.830;-0.674;2022-07-18T01:50:14;22.20;79.90
35690;DHT22;26977;44.830;-0.674;2022-07-18T01:52:40;22.30;79.30
35690;DHT22;26977;44.830;-0.674;2022-07-18T01:55:08;22.30;79.00
35690;DHT22;26977;44.830;-0.674;2022-07-18T01:57:35;22.30;79.30
35690;DHT22;26977;44.830;-0.674;2022-07-18T02:00:02;22.20;79.70
35690;DHT22;26977;44.830;-0.674;2022-07-18T02:02:28;22.10;79.80
35690;DHT22;26977;44.830;-0.674;2022-07-18T02:04:54;22.10;80.10
35690;DHT22;26977;44.830;-0.674;2022-07-18T02:07:32;22.20;79.60
35690;DHT22;26977;44.830;-0.674;2022-07-18T02:09:59;22.30;80.10
35690;DHT22;26977;44.830;-0.674;2022-07-18T02:12:25;22.20;79.80
35690;DHT22;26977;44.830;-0.674;2022-07-18T02:14:51;22.20;79.70
35690;DHT22;26977;44.830;-0.674;2022-07-18T02:17:18;22.30;79.40
35690;DHT22;26977;44.830;-0.674;2022-07-18T02:19:45;22.50;78.80
35690;DHT22;26977;44.830;-0.674;2022-07-18T02:22:11;22.60;78.50
35690;DHT22;26977;44.830;-0.674;2022-07-18T02:24:37;22.50;78.40
35690;DHT22;26977;44.830;-0.674;2022-07-18T02:27:03;22.80;78.10
35690;DHT22;26977;44.830;-0.674;2022-07-18T02:29:29;22.80;77.70
35690;DHT22;26977;44.830;-0.674;2022-07-18T02:31:56;22.90;77.30
35690;DHT22;26977;44.830;-0.674;2022-07-18T02:34:22;23.00;77.20
35690;DHT22;26977;44.830;-0.674;2022-07-18T02:36:48;22.90;77.50
35690;DHT22;26977;44.830;-0.674;2022-07-18T02:39:16;22.80;78.10
35690;DHT22;26977;44.830;-0.674;2022-07-18T02:41:42;22.60;77.90
35690;DHT22;26977;44.830;-0.674;2022-07-18T02:44:08;22.40;78.20
35690;DHT22;26977;44.830;-0.674;2022-07-18T02:46:34;22.30;78.30
35690;DHT22;26977;44.830;-0.674;2022-07-18T02:49:01;22.20;79.30
35690;DHT22;26977;44.830;-0.674;2022-07-18T02:51:27;22.10;79.50
35690;DHT22;26977;44.830;-0.674;2022-07-18T02:53:53;22.30;79.40
35690;DHT22;26977;44.830;-0.674;2022-07-18T02:56:19;22.30;79.60
35690;DHT22;26977;44.830;-0.674;2022-07-18T02:58:45;22.30;79.40
35690;DHT22;26977;44.830;-0.674;2022-07-18T03:01:12;22.20;79.70
35690;DHT22;26977;44.830;-0.674;2022-07-18T03:03:38;22.20;79.90
35690;DHT22;26977;44.830;-0.674;2022-07-18T03:06:04;22.10;80.20
35690;DHT22;26977;44.830;-0.674;2022-07-18T03:08:30;22.10;80.20
35690;DHT22;26977;44.830;-0.674;2022-07-18T03:10:56;22.00;80.30
35690;DHT22;26977;44.830;-0.674;2022-07-18T03:13:22;22.00;80.80
35690;DHT22;26977;44.830;-0.674;2022-07-18T03:15:48;21.90;81.20
35690;DHT22;26977;44.830;-0.674;2022-07-18T03:18:14;21.90;81.00
35690;DHT22;26977;44.830;-0.674;2022-07-18T03:20:40;22.00;80.80
35690;DHT22;26977;44.830;-0.674;2022-07-18T03:23:07;21.90;80.50
35690;DHT22;26977;44.830;-0.674;2022-07-18T03:25:33;22.00;80.10
35690;DHT22;26977;44.830;-0.674;2022-07-18T03:27:59;22.30;79.20
35690;DHT22;26977;44.830;-0.674;2022-07-18T03:30:25;22.50;78.40
35690;DHT22;26977;44.830;-0.674;2022-07-18T03:32:51;22.60;78.00
35690;DHT22;26977;44.830;-0.674;2022-07-18T03:35:18;22.50;78.00
35690;DHT22;26977;44.830;-0.674;2022-07-18T03:37:44;22.50;78.40
35690;DHT22;26977;44.830;-0.674;2022-07-18T03:40:10;22.50;78.20
35690;DHT22;26977;44.830;-0.674;2022-07-18T03:42:38;22.50;78.30
35690;DHT22;26977;44.830;-0.674;2022-07-18T03:45:05;22.50;78.10
35690;DHT22;26977;44.830;-0.674;2022-07-18T03:47:31;22.50;78.00
35690;DHT22;26977;44.830;-0.674;2022-07-18T03:49:57;22.60;77.50
35690;DHT22;26977;44.830;-0.674;2022-07-18T03:52:23;22.80;77.00
35690;DHT22;26977;44.830;-0.674;2022-07-18T03:54:49;22.90;76.60
35690;DHT22;26977;44.830;-0.674;2022-07-18T03:57:15;22.90;76.40
35690;DHT22;26977;44.830;-0.674;2022-07-18T03:59:41;22.90;76.00
35690;DHT22;26977;44.830;-0.674;2022-07-18T04:02:07;23.00;76.00
35690;DHT22;26977;44.830;-0.674;2022-07-18T04:04:33;23.00;76.10
35690;DHT22;26977;44.830;-0.674;2022-07-18T04:06:59;22.90;76.10
35690;DHT22;26977;44.830;-0.674;2022-07-18T04:09:26;22.80;76.40
35690;DHT22;26977;44.830;-0.674;2022-07-18T04:11:52;22.60;77.00
35690;DHT22;26977;44.830;-0.674;2022-07-18T04:14:18;22.60;77.10
35690;DHT22;26977;44.830;-0.674;2022-07-18T04:16:44;22.50;77.30
35690;DHT22;26977;44.830;-0.674;2022-07-18T04:19:10;22.50;77.30
35690;DHT22;26977;44.830;-0.674;2022-07-18T04:21:36;22.60;77.30
35690;DHT22;26977;44.830;-0.674;2022-07-18T04:24:03;22.60;77.30
35690;DHT22;26977;44.830;-0.674;2022-07-18T04:26:29;22.60;77.50
35690;DHT22;26977;44.830;-0.674;2022-07-18T04:28:55;22.50;77.30
35690;DHT22;26977;44.830;-0.674;2022-07-18T04:31:21;22.50;77.30
35690;DHT22;26977;44.830;-0.674;2022-07-18T04:33:47;22.40;77.70
35690;DHT22;26977;44.830;-0.674;2022-07-18T04:36:13;22.40;77.60
35690;DHT22;26977;44.830;-0.674;2022-07-18T04:38:39;22.30;77.60
35690;DHT22;26977;44.830;-0.674;2022-07-18T04:41:06;22.30;77.80
35690;DHT22;26977;44.830;-0.674;2022-07-18T04:43:32;22.30;77.70
35690;DHT22;26977;44.830;-0.674;2022-07-18T04:45:58;22.50;77.50
35690;DHT22;26977;44.830;-0.674;2022-07-18T04:48:24;22.60;77.10
35690;DHT22;26977;44.830;-0.674;2022-07-18T04:50:50;22.70;76.80
35690;DHT22;26977;44.830;-0.674;2022-07-18T04:53:17;22.80;76.40
35690;DHT22;26977;44.830;-0.674;2022-07-18T04:55:43;22.90;76.10
35690;DHT22;26977;44.830;-0.674;2022-07-18T04:58:09;22.90;75.60
35690;DHT22;26977;44.830;-0.674;2022-07-18T05:00:35;23.10;75.30
35690;DHT22;26977;44.830;-0.674;2022-07-18T05:03:01;23.20;75.20
35690;DHT22;26977;44.830;-0.674;2022-07-18T05:05:28;23.20;75.10
35690;DHT22;26977;44.830;-0.674;2022-07-18T05:07:54;23.20;75.20
35690;DHT22;26977;44.830;-0.674;2022-07-18T05:10:23;23.10;75.30
35690;DHT22;26977;44.830;-0.674;2022-07-18T05:12:51;23.10;75.60
35690;DHT22;26977;44.830;-0.674;2022-07-18T05:15:20;23.00;75.70
35690;DHT22;26977;44.830;-0.674;2022-07-18T05:17:46;23.00;76.10
35690;DHT22;26977;44.830;-0.674;2022-07-18T05:20:15;22.90;76.80
35690;DHT22;26977;44.830;-0.674;2022-07-18T05:22:42;22.70;77.00
35690;DHT22;26977;44.830;-0.674;2022-07-18T05:25:10;22.60;77.40
35690;DHT22;26977;44.830;-0.674;2022-07-18T05:27:36;22.60;77.70
35690;DHT22;26977;44.830;-0.674;2022-07-18T05:30:05;22.50;78.00
35690;DHT22;26977;44.830;-0.674;2022-07-18T05:32:31;22.40;78.70
35690;DHT22;26977;44.830;-0.674;2022-07-18T05:34:57;22.30;78.90
35690;DHT22;26977;44.830;-0.674;2022-07-18T05:37:23;22.30;79.20
35690;DHT22;26977;44.830;-0.674;2022-07-18T05:39:49;22.50;78.80
35690;DHT22;26977;44.830;-0.674;2022-07-18T05:42:17;22.60;78.90
35690;DHT22;26977;44.830;-0.674;2022-07-18T05:44:43;22.70;78.80
35690;DHT22;26977;44.830;-0.674;2022-07-18T05:47:09;22.80;78.50
35690;DHT22;26977;44.830;-0.674;2022-07-18T05:49:35;22.90;78.30
35690;DHT22;26977;44.830;-0.674;2022-07-18T05:52:02;23.00;78.20
35690;DHT22;26977;44.830;-0.674;2022-07-18T05:54:28;23.20;77.70
35690;DHT22;26977;44.830;-0.674;2022-07-18T05:56:54;23.20;77.50
35690;DHT22;26977;44.830;-0.674;2022-07-18T05:59:21;23.30;77.40
35690;DHT22;26977;44.830;-0.674;2022-07-18T06:01:47;23.50;77.00
35690;DHT22;26977;44.830;-0.674;2022-07-18T06:04:13;23.70;76.20
35690;DHT22;26977;44.830;-0.674;2022-07-18T06:06:40;23.90;75.80
35690;DHT22;26977;44.830;-0.674;2022-07-18T06:09:06;24.00;75.10
35690;DHT22;26977;44.830;-0.674;2022-07-18T06:11:34;24.20;74.90
35690;DHT22;26977;44.830;-0.674;2022-07-18T06:14:00;24.30;74.30
35690;DHT22;26977;44.830;-0.674;2022-07-18T06:16:29;24.50;74.00
35690;DHT22;26977;44.830;-0.674;2022-07-18T06:18:56;24.60;73.70
35690;DHT22;26977;44.830;-0.674;2022-07-18T06:21:22;24.80;73.20
35690;DHT22;26977;44.830;-0.674;2022-07-18T06:23:49;24.90;73.00
35690;DHT22;26977;44.830;-0.674;2022-07-18T06:26:15;25.00;72.80
35690;DHT22;26977;44.830;-0.674;2022-07-18T06:28:40;25.10;72.90
35690;DHT22;26977;44.830;-0.674;2022-07-18T06:31:06;25.10;73.00
35690;DHT22;26977;44.830;-0.674;2022-07-18T06:33:33;25.20;72.60
35690;DHT22;26977;44.830;-0.674;2022-07-18T06:35:59;25.30;72.50
35690;DHT22;26977;44.830;-0.674;2022-07-18T06:38:25;25.40;72.10
35690;DHT22;26977;44.830;-0.674;2022-07-18T06:40:51;25.60;71.90
35690;DHT22;26977;44.830;-0.674;2022-07-18T06:43:16;25.60;71.70
35690;DHT22;26977;44.830;-0.674;2022-07-18T06:45:46;25.70;71.60
35690;DHT22;26977;44.830;-0.674;2022-07-18T06:48:13;25.90;71.20
35690;DHT22;26977;44.830;-0.674;2022-07-18T06:50:39;26.00;71.40
35690;DHT22;26977;44.830;-0.674;2022-07-18T06:53:06;26.00;71.30
35690;DHT22;26977;44.830;-0.674;2022-07-18T06:55:31;26.10;71.00
35690;DHT22;26977;44.830;-0.674;2022-07-18T06:57:58;26.20;70.90
35690;DHT22;26977;44.830;-0.674;2022-07-18T07:00:24;26.40;70.80
35690;DHT22;26977;44.830;-0.674;2022-07-18T07:02:51;26.50;70.70
35690;DHT22;26977;44.830;-0.674;2022-07-18T07:05:19;26.60;70.50
35690;DHT22;26977;44.830;-0.674;2022-07-18T07:07:46;26.70;70.30
35690;DHT22;26977;44.830;-0.674;2022-07-18T07:10:12;26.80;70.20
35690;DHT22;26977;44.830;-0.674;2022-07-18T07:12:43;26.90;70.20
35690;DHT22;26977;44.830;-0.674;2022-07-18T07:15:10;27.00;69.30
35690;DHT22;26977;44.830;-0.674;2022-07-18T07:17:37;27.00;69.40
35690;DHT22;26977;44.830;-0.674;2022-07-18T07:20:06;27.00;69.70
35690;DHT22;26977;44.830;-0.674;2022-07-18T07:22:54;27.20;69.30
35690;DHT22;26977;44.830;-0.674;2022-07-18T07:25:20;27.20;69.10
35690;DHT22;26977;44.830;-0.674;2022-07-18T07:27:46;27.30;69.00
35690;DHT22;26977;44.830;-0.674;2022-07-18T07:30:14;27.30;69.10
35690;DHT22;26977;44.830;-0.674;2022-07-18T07:32:42;27.40;69.00
35690;DHT22;26977;44.830;-0.674;2022-07-18T07:35:09;27.50;69.00
35690;DHT22;26977;44.830;-0.674;2022-07-18T07:37:39;27.60;69.00
35690;DHT22;26977;44.830;-0.674;2022-07-18T07:40:06;27.80;68.60
35690;DHT22;26977;44.830;-0.674;2022-07-18T07:42:33;27.80;69.10
35690;DHT22;26977;44.830;-0.674;2022-07-18T07:44:59;27.80;68.70
35690;DHT22;26977;44.830;-0.674;2022-07-18T07:47:25;28.00;68.70
35690;DHT22;26977;44.830;-0.674;2022-07-18T07:49:51;28.20;68.50
35690;DHT22;26977;44.830;-0.674;2022-07-18T07:52:18;28.30;67.90
35690;DHT22;26977;44.830;-0.674;2022-07-18T07:54:44;28.50;67.40
35690;DHT22;26977;44.830;-0.674;2022-07-18T07:57:11;28.60;67.50
35690;DHT22;26977;44.830;-0.674;2022-07-18T07:59:37;28.70;67.00
35690;DHT22;26977;44.830;-0.674;2022-07-18T08:02:03;28.80;66.90
35690;DHT22;26977;44.830;-0.674;2022-07-18T08:04:29;28.90;67.00
35690;DHT22;26977;44.830;-0.674;2022-07-18T08:06:55;29.00;66.80
35690;DHT22;26977;44.830;-0.674;2022-07-18T08:09:21;29.10;66.70
35690;DHT22;26977;44.830;-0.674;2022-07-18T08:11:47;29.20;66.10
35690;DHT22;26977;44.830;-0.674;2022-07-18T08:14:13;29.40;65.90
35690;DHT22;26977;44.830;-0.674;2022-07-18T08:16:39;29.50;66.10
35690;DHT22;26977;44.830;-0.674;2022-07-18T08:19:05;29.60;65.70
35690;DHT22;26977;44.830;-0.674;2022-07-18T08:21:32;29.70;66.20
35690;DHT22;26977;44.830;-0.674;2022-07-18T08:23:58;29.70;65.80
35690;DHT22;26977;44.830;-0.674;2022-07-18T08:26:23;30.00;67.20
35690;DHT22;26977;44.830;-0.674;2022-07-18T08:28:49;30.10;64.70
35690;DHT22;26977;44.830;-0.674;2022-07-18T08:31:15;30.20;64.40
35690;DHT22;26977;44.830;-0.674;2022-07-18T08:33:42;30.40;64.90
35690;DHT22;26977;44.830;-0.674;2022-07-18T08:36:08;30.60;64.50
35690;DHT22;26977;44.830;-0.674;2022-07-18T08:38:34;30.60;63.20
35690;DHT22;26977;44.830;-0.674;2022-07-18T08:41:01;30.80;63.10
35690;DHT22;26977;44.830;-0.674;2022-07-18T08:43:27;31.00;61.80
35690;DHT22;26977;44.830;-0.674;2022-07-18T08:46:03;31.20;61.50
35690;DHT22;26977;44.830;-0.674;2022-07-18T08:48:31;31.40;61.80
35690;DHT22;26977;44.830;-0.674;2022-07-18T08:50:59;31.60;60.60
35690;DHT22;26977;44.830;-0.674;2022-07-18T08:53:26;31.60;60.80
35690;DHT22;26977;44.830;-0.674;2022-07-18T08:55:52;31.80;60.30
35690;DHT22;26977;44.830;-0.674;2022-07-18T08:58:19;31.80;60.40
35690;DHT22;26977;44.830;-0.674;2022-07-18T09:00:45;31.90;60.30
35690;DHT22;26977;44.830;-0.674;2022-07-18T09:03:12;32.00;60.70
35690;DHT22;26977;44.830;-0.674;2022-07-18T09:05:38;32.10;60.70
35690;DHT22;26977;44.830;-0.674;2022-07-18T09:08:25;32.20;60.20
35690;DHT22;26977;44.830;-0.674;2022-07-18T09:10:56;32.50;60.70
35690;DHT22;26977;44.830;-0.674;2022-07-18T09:13:44;32.50;60.20
35690;DHT22;26977;44.830;-0.674;2022-07-18T09:16:13;32.70;60.10
35690;DHT22;26977;44.830;-0.674;2022-07-18T09:18:47;32.90;60.30
35690;DHT22;26977;44.830;-0.674;2022-07-18T09:21:17;32.80;59.90
35690;DHT22;26977;44.830;-0.674;2022-07-18T09:23:45;32.70;60.30
35690;DHT22;26977;44.830;-0.674;2022-07-18T09:26:38;32.70;60.90
35690;DHT22;26977;44.830;-0.674;2022-07-18T09:29:04;32.90;60.40
35690;DHT22;26977;44.830;-0.674;2022-07-18T09:31:30;33.00;60.90
35690;DHT22;26977;44.830;-0.674;2022-07-18T09:33:59;33.30;60.20
35690;DHT22;26977;44.830;-0.674;2022-07-18T09:36:25;33.30;60.10
35690;DHT22;26977;44.830;-0.674;2022-07-18T09:38:51;33.30;60.20
35690;DHT22;26977;44.830;-0.674;2022-07-18T09:41:25;33.50;61.00
35690;DHT22;26977;44.830;-0.674;2022-07-18T09:43:52;33.80;60.60
35690;DHT22;26977;44.830;-0.674;2022-07-18T09:46:17;33.90;59.80
35690;DHT22;26977;44.830;-0.674;2022-07-18T09:48:44;33.90;59.30
35690;DHT22;26977;44.830;-0.674;2022-07-18T09:51:10;33.90;59.50
35690;DHT22;26977;44.830;-0.674;2022-07-18T09:53:38;33.90;59.90
35690;DHT22;26977;44.830;-0.674;2022-07-18T09:56:06;33.80;60.00
35690;DHT22;26977;44.830;-0.674;2022-07-18T09:58:35;34.10;59.50
35690;DHT22;26977;44.830;-0.674;2022-07-18T10:01:04;34.30;59.50
35690;DHT22;26977;44.830;-0.674;2022-07-18T10:03:31;34.50;59.80
35690;DHT22;26977;44.830;-0.674;2022-07-18T10:05:59;34.70;58.70
35690;DHT22;26977;44.830;-0.674;2022-07-18T10:08:32;34.70;59.00
35690;DHT22;26977;44.830;-0.674;2022-07-18T10:11:00;34.90;58.50
35690;DHT22;26977;44.830;-0.674;2022-07-18T10:13:28;35.10;57.90
35690;DHT22;26977;44.830;-0.674;2022-07-18T10:15:55;35.00;58.00
35690;DHT22;26977;44.830;-0.674;2022-07-18T10:18:26;34.80;58.00
35690;DHT22;26977;44.830;-0.674;2022-07-18T10:20:58;35.00;58.20
35690;DHT22;26977;44.830;-0.674;2022-07-18T10:23:25;35.10;58.20
35690;DHT22;26977;44.830;-0.674;2022-07-18T10:26:14;35.40;57.80
35690;DHT22;26977;44.830;-0.674;2022-07-18T10:36:37;35.80;56.40
35690;DHT22;26977;44.830;-0.674;2022-07-18T11:18:22;36.90;54.10
35690;DHT22;26977;44.830;-0.674;2022-07-18T11:20:48;36.90;54.60
35690;DHT22;26977;44.830;-0.674;2022-07-18T11:25:50;37.10;53.50
35690;DHT22;26977;44.830;-0.674;2022-07-18T11:28:16;37.20;53.50
35690;DHT22;26977;44.830;-0.674;2022-07-18T11:30:42;37.10;53.60
35690;DHT22;26977;44.830;-0.674;2022-07-18T11:33:26;37.20;53.90
35690;DHT22;26977;44.830;-0.674;2022-07-18T11:36:11;37.50;53.30
35690;DHT22;26977;44.830;-0.674;2022-07-18T11:41:13;37.40;53.20
35690;DHT22;26977;44.830;-0.674;2022-07-18T11:43:39;37.90;53.40
35690;DHT22;26977;44.830;-0.674;2022-07-18T11:46:09;37.70;52.10
35690;DHT22;26977;44.830;-0.674;2022-07-18T11:48:36;37.90;50.80
35690;DHT22;26977;44.830;-0.674;2022-07-18T11:51:08;38.20;51.50
35690;DHT22;26977;44.830;-0.674;2022-07-18T11:53:34;38.70;51.80
35690;DHT22;26977;44.830;-0.674;2022-07-18T11:56:04;39.10;52.40
35690;DHT22;26977;44.830;-0.674;2022-07-18T11:58:36;39.30;52.10
35690;DHT22;26977;44.830;-0.674;2022-07-18T12:01:05;39.40;51.40
35690;DHT22;26977;44.830;-0.674;2022-07-18T12:03:34;39.20;51.10
35690;DHT22;26977;44.830;-0.674;2022-07-18T12:06:19;39.20;51.30
35690;DHT22;26977;44.830;-0.674;2022-07-18T12:08:47;39.00;50.40
35690;DHT22;26977;44.830;-0.674;2022-07-18T12:16:47;38.80;50.20
35690;DHT22;26977;44.830;-0.674;2022-07-18T12:21:46;39.40;49.30
35690;DHT22;26977;44.830;-0.674;2022-07-18T12:32:48;39.40;48.60
35690;DHT22;26977;44.830;-0.674;2022-07-18T12:35:36;39.50;48.60
35690;DHT22;26977;44.830;-0.674;2022-07-18T12:38:05;39.80;48.40
35690;DHT22;26977;44.830;-0.674;2022-07-18T12:43:12;40.30;48.10
35690;DHT22;26977;44.830;-0.674;2022-07-18T12:45:39;40.40;47.30
35690;DHT22;26977;44.830;-0.674;2022-07-18T12:48:07;40.70;48.00
35690;DHT22;26977;44.830;-0.674;2022-07-18T12:50:34;41.10;47.10
35690;DHT22;26977;44.830;-0.674;2022-07-18T12:53:00;40.90;45.80
35690;DHT22;26977;44.830;-0.674;2022-07-18T12:55:26;41.50;47.10
35690;DHT22;26977;44.830;-0.674;2022-07-18T12:57:52;41.70;47.00
35690;DHT22;26977;44.830;-0.674;2022-07-18T13:00:18;41.90;46.10
35690;DHT22;26977;44.830;-0.674;2022-07-18T13:02:44;42.60;45.40
35690;DHT22;26977;44.830;-0.674;2022-07-18T13:05:10;43.00;45.20
35690;DHT22;26977;44.830;-0.674;2022-07-18T13:07:36;43.40;45.30
35690;DHT22;26977;44.830;-0.674;2022-07-18T13:10:03;43.20;45.40
35690;DHT22;26977;44.830;-0.674;2022-07-18T13:12:29;43.30;45.90
35690;DHT22;26977;44.830;-0.674;2022-07-18T13:14:54;44.00;45.80
35690;DHT22;26977;44.830;-0.674;2022-07-18T13:17:20;45.20;45.30
35690;DHT22;26977;44.830;-0.674;2022-07-18T13:19:46;45.50;44.10
35690;DHT22;26977;44.830;-0.674;2022-07-18T13:22:11;44.90;44.40
35690;DHT22;26977;44.830;-0.674;2022-07-18T13:24:37;44.20;45.60
35690;DHT22;26977;44.830;-0.674;2022-07-18T13:27:04;44.40;45.30
35690;DHT22;26977;44.830;-0.674;2022-07-18T13:29:30;45.10;45.30
35690;DHT22;26977;44.830;-0.674;2022-07-18T13:31:55;45.10;44.50
35690;DHT22;26977;44.830;-0.674;2022-07-18T13:34:23;45.40;44.20
35690;DHT22;26977;44.830;-0.674;2022-07-18T13:36:52;44.80;44.40
35690;DHT22;26977;44.830;-0.674;2022-07-18T13:39:19;44.00;45.10
35690;DHT22;26977;44.830;-0.674;2022-07-18T13:41:46;44.50;44.30
35690;DHT22;26977;44.830;-0.674;2022-07-18T13:44:12;45.20;43.50
35690;DHT22;26977;44.830;-0.674;2022-07-18T13:46:37;44.90;44.20
35690;DHT22;26977;44.830;-0.674;2022-07-18T13:49:09;45.10;44.40
35690;DHT22;26977;44.830;-0.674;2022-07-18T13:51:35;44.80;44.30
35690;DHT22;26977;44.830;-0.674;2022-07-18T13:54:05;45.50;43.70
35690;DHT22;26977;44.830;-0.674;2022-07-18T13:56:31;46.20;43.10
35690;DHT22;26977;44.830;-0.674;2022-07-18T13:58:57;46.80;43.40
35690;DHT22;26977;44.830;-0.674;2022-07-18T14:01:23;46.80;42.90
35690;DHT22;26977;44.830;-0.674;2022-07-18T14:03:49;46.50;41.60
35690;DHT22;26977;44.830;-0.674;2022-07-18T14:06:15;45.90;42.60
35690;DHT22;26977;44.830;-0.674;2022-07-18T14:08:40;46.70;42.20
35690;DHT22;26977;44.830;-0.674;2022-07-18T14:11:06;46.30;42.20
35690;DHT22;26977;44.830;-0.674;2022-07-18T14:13:33;46.20;42.90
35690;DHT22;26977;44.830;-0.674;2022-07-18T14:15:58;46.10;43.40
35690;DHT22;26977;44.830;-0.674;2022-07-18T14:18:24;46.40;43.40
35690;DHT22;26977;44.830;-0.674;2022-07-18T14:20:50;46.70;42.30
35690;DHT22;26977;44.830;-0.674;2022-07-18T14:23:15;46.40;42.80
35690;DHT22;26977;44.830;-0.674;2022-07-18T14:25:41;46.80;42.50
35690;DHT22;26977;44.830;-0.674;2022-07-18T14:28:07;46.20;41.90
35690;DHT22;26977;44.830;-0.674;2022-07-18T14:30:33;45.70;42.20
35690;DHT22;26977;44.830;-0.674;2022-07-18T14:32:59;45.80;42.30
35690;DHT22;26977;44.830;-0.674;2022-07-18T14:35:24;46.10;42.10
35690;DHT22;26977;44.830;-0.674;2022-07-18T14:37:50;46.50;42.10
35690;DHT22;26977;44.830;-0.674;2022-07-18T14:40:16;47.20;42.00
35690;DHT22;26977;44.830;-0.674;2022-07-18T14:42:42;47.90;41.90
35690;DHT22;26977;44.830;-0.674;2022-07-18T14:45:08;47.60;41.70
35690;DHT22;26977;44.830;-0.674;2022-07-18T14:47:34;47.10;41.10
35690;DHT22;26977;44.830;-0.674;2022-07-18T14:50:05;47.30;41.20
35690;DHT22;26977;44.830;-0.674;2022-07-18T14:52:31;47.00;41.10
35690;DHT22;26977;44.830;-0.674;2022-07-18T14:54:57;47.10;41.60
35690;DHT22;26977;44.830;-0.674;2022-07-18T14:57:22;46.80;41.90
35690;DHT22;26977;44.830;-0.674;2022-07-18T14:59:48;48.00;41.40
35690;DHT22;26977;44.830;-0.674;2022-07-18T15:02:14;48.20;40.80
35690;DHT22;26977;44.830;-0.674;2022-07-18T15:04:40;48.30;40.40
35690;DHT22;26977;44.830;-0.674;2022-07-18T15:07:06;48.50;40.20
35690;DHT22;26977;44.830;-0.674;2022-07-18T15:09:31;49.20;40.30
35690;DHT22;26977;44.830;-0.674;2022-07-18T15:11:57;49.60;39.70
35690;DHT22;26977;44.830;-0.674;2022-07-18T15:14:23;48.90;39.70
35690;DHT22;26977;44.830;-0.674;2022-07-18T15:16:49;48.40;40.20
35690;DHT22;26977;44.830;-0.674;2022-07-18T15:19:15;48.80;39.90
35690;DHT22;26977;44.830;-0.674;2022-07-18T15:21:40;49.20;40.50
35690;DHT22;26977;44.830;-0.674;2022-07-18T15:24:06;49.90;39.50
35690;DHT22;26977;44.830;-0.674;2022-07-18T15:26:33;49.90;39.00
35690;DHT22;26977;44.830;-0.674;2022-07-18T15:29:00;49.50;38.70
35690;DHT22;26977;44.830;-0.674;2022-07-18T15:31:26;49.20;38.80
35690;DHT22;26977;44.830;-0.674;2022-07-18T15:33:51;48.30;39.10
35690;DHT22;26977;44.830;-0.674;2022-07-18T15:36:17;48.10;39.40
35690;DHT22;26977;44.830;-0.674;2022-07-18T15:38:43;48.90;39.80
35690;DHT22;26977;44.830;-0.674;2022-07-18T15:41:10;48.00;40.00
35690;DHT22;26977;44.830;-0.674;2022-07-18T15:43:37;47.70;40.20
35690;DHT22;26977;44.830;-0.674;2022-07-18T15:46:04;47.60;39.70
35690;DHT22;26977;44.830;-0.674;2022-07-18T15:48:30;47.00;40.20
35690;DHT22;26977;44.830;-0.674;2022-07-18T15:50:55;47.80;39.70
35690;DHT22;26977;44.830;-0.674;2022-07-18T15:53:21;48.30;39.80
35690;DHT22;26977;44.830;-0.674;2022-07-18T15:55:47;48.50;39.10
35690;DHT22;26977;44.830;-0.674;2022-07-18T15:58:15;48.60;39.40
35690;DHT22;26977;44.830;-0.674;2022-07-18T16:00:41;49.00;39.50
35690;DHT22;26977;44.830;-0.674;2022-07-18T16:03:07;48.30;39.30
35690;DHT22;26977;44.830;-0.674;2022-07-18T16:05:32;48.00;39.80
35690;DHT22;26977;44.830;-0.674;2022-07-18T16:07:58;48.80;39.40
35690;DHT22;26977;44.830;-0.674;2022-07-18T16:10:28;48.50;39.10
35690;DHT22;26977;44.830;-0.674;2022-07-18T16:12:54;48.60;38.70
35690;DHT22;26977;44.830;-0.674;2022-07-18T16:15:20;48.60;38.80
35690;DHT22;26977;44.830;-0.674;2022-07-18T16:17:45;48.20;38.10
35690;DHT22;26977;44.830;-0.674;2022-07-18T16:20:11;47.70;38.10
35690;DHT22;26977;44.830;-0.674;2022-07-18T16:22:41;47.20;38.20
35690;DHT22;26977;44.830;-0.674;2022-07-18T16:25:07;46.70;38.90
35690;DHT22;26977;44.830;-0.674;2022-07-18T16:27:33;46.70;38.80